sensor_id;sensor_type;location;lat;lon;timestamp;temperature;humidity
22360;DHT22;11347;52.030;4.690;2022-08-01T00:00:23;23.70;62.30
22360;DHT22;11347;52.030;4.690;2022-08-01T00:02:49;23.70;62.30
22360;DHT22;11347;52.030;4.690;2022-08-01T00:05:15;23.70;62.30
22360;DHT22;11347;52.030;4.690;2022-08-01T00:07:40;23.70;62.30
22360;DHT22;11347;52.030;4.690;2022-08-01T00:10:10;23.70;62.30
22360;DHT22;11347;52.030;4.690;2022-08-01T00:12:36;23.70;62.30
22360;DHT22;11347;52.030;4.690;2022-08-01T00:15:03;23.70;62.30
22360;DHT22;11347;52.030;4.690;2022-08-01T00:17:29;23.70;62.80
22360;DHT22;11347;52.030;4.690;2022-08-01T00:19:54;23.60;62.20
22360;DHT22;11347;52.030;4.690;2022-08-01T00:22:20;23.70;62.30
22360;DHT22;11347;52.030;4.690;2022-08-01T00:24:46;23.70;62.30
22360;DHT22;11347;52.030;4.690;2022-08-01T00:27:11;23.70;62.30
22360;DHT22;11347;52.030;4.690;2022-08-01T00:29:37;23.60;62.20
22360;DHT22;11347;52.030;4.690;2022-08-01T00:32:02;23.60;62.20
22360;DHT22;11347;52.030;4.690;2022-08-01T00:34:28;23.60;62.20
22360;DHT22;11347;52.030;4.690;2022-08-01T00:36:53;23.60;62.20
22360;DHT22;11347;52.030;4.690;2022-08-01T00:39:19;23.60;62.20
22360;DHT22;11347;52.030;4.690;2022-08-01T00:41:45;23.60;62.20
22360;DHT22;11347;52.030;4.690;2022-08-01T00:44:10;23.60;62.20
22360;DHT22;11347;52.030;4.690;2022-08-01T00:46:36;23.60;62.20
22360;DHT22;11347;52.030;4.690;2022-08-01T00:49:02;23.60;62.20
22360;DHT22;11347;52.030;4.690;2022-08-01T00:51:28;23.60;62.60
22360;DHT22;11347;52.030;4.690;2022-08-01T00:53:54;23.60;62.90
22360;DHT22;11347;52.030;4.690;2022-08-01T00:56:21;23.60;63.20
22360;DHT22;11347;52.030;4.690;2022-08-01T00:58:47;23.60;63.40
22360;DHT22;11347;52.030;4.690;2022-08-01T01:01:13;23.60;63.60
22360;DHT22;11347;52.030;4.690;2022-08-01T01:03:38;23.60;63.70
22360;DHT22;11347;52.030;4.690;2022-08-01T01:09:26;23.60;64.00
22360;DHT22;11347;52.030;4.690;2022-08-01T01:17:27;23.60;64.50
22360;DHT22;11347;52.030;4.690;2022-08-01T01:19:55;23.60;64.80
22360;DHT22;11347;52.030;4.690;2022-08-01T01:22:27;23.60;64.90
22360;DHT22;11347;52.030;4.690;2022-08-01T01:25:09;23.60;65.20
22360;DHT22;11347;52.030;4.690;2022-08-01T01:27:57;23.60;65.30
22360;DHT22;11347;52.030;4.690;2022-08-01T01:30:28;23.50;65.30
22360;DHT22;11347;52.030;4.690;2022-08-01T01:32:58;23.60;65.60
22360;DHT22;11347;52.030;4.690;2022-08-01T01:35:27;23.60;65.70
22360;DHT22;11347;52.030;4.690;2022-08-01T01:38:00;23.60;65.90
22360;DHT22;11347;52.030;4.690;2022-08-01T01:40:27;23.50;65.80
22360;DHT22;11347;52.030;4.690;2022-08-01T01:42:56;23.60;66.10
22360;DHT22;11347;52.030;4.690;2022-08-01T01:45:23;23.50;66.00
22360;DHT22;11347;52.030;4.690;2022-08-01T01:47:50;23.60;66.10
22360;DHT22;11347;52.030;4.690;2022-08-01T01:50:17;23.60;66.20
22360;DHT22;11347;52.030;4.690;2022-08-01T01:52:45;23.60;66.10
22360;DHT22;11347;52.030;4.690;2022-08-01T01:55:11;23.50;66.00
22360;DHT22;11347;52.030;4.690;2022-08-01T01:57:41;23.50;66.00
22360;DHT22;11347;52.030;4.690;2022-08-01T02:00:09;23.50;66.00
22360;DHT22;11347;52.030;4.690;2022-08-01T02:02:36;23.50;66.00
22360;DHT22;11347;52.030;4.690;2022-08-01T02:05:05;23.50;66.00
22360;DHT22;11347;52.030;4.690;2022-08-01T02:07:31;23.50;66.00
22360;DHT22;11347;52.030;4.690;2022-08-01T02:10:00;23.50;66.00
22360;DHT22;11347;52.030;4.690;2022-08-01T02:12:27;23.50;66.00
22360;DHT22;11347;52.030;4.690;2022-08-01T02:14:55;23.50;66.10
22360;DHT22;11347;52.030;4.690;2022-08-01T02:17:22;23.50;66.10
22360;DHT22;11347;52.030;4.690;2022-08-01T02:19:49;23.50;66.00
22360;DHT22;11347;52.030;4.690;2022-08-01T02:22:55;23.50;66.00
22360;DHT22;11347;52.030;4.690;2022-08-01T02:25:25;23.50;65.90
22360;DHT22;11347;52.030;4.690;2022-08-01T02:28:03;23.50;65.80
22360;DHT22;11347;52.030;4.690;2022-08-01T02:30:34;23.50;66.10
22360;DHT22;11347;52.030;4.690;2022-08-01T02:33:17;23.50;65.60
22360;DHT22;11347;52.030;4.690;2022-08-01T02:35:46;23.50;65.60
22360;DHT22;11347;52.030;4.690;2022-08-01T02:38:13;23.50;65.50
22360;DHT22;11347;52.030;4.690;2022-08-01T02:40:41;23.50;65.50
22360;DHT22;11347;52.030;4.690;2022-08-01T02:43:09;23.50;65.50
22360;DHT22;11347;52.030;4.690;2022-08-01T02:45:41;23.50;65.50
22360;DHT22;11347;52.030;4.690;2022-08-01T02:48:13;23.50;65.50
22360;DHT22;11347;52.030;4.690;2022-08-01T02:50:42;23.50;65.60
22360;DHT22;11347;52.030;4.690;2022-08-01T02:53:09;23.60;65.60
22360;DHT22;11347;52.030;4.690;2022-08-01T02:55:38;23.50;65.50
22360;DHT22;11347;52.030;4.690;2022-08-01T02:58:05;23.50;65.50
22360;DHT22;11347;52.030;4.690;2022-08-01T03:00:33;23.60;65.50
22360;DHT22;11347;52.030;4.690;2022-08-01T03:03:00;23.50;65.50
22360;DHT22;11347;52.030;4.690;2022-08-01T03:05:27;23.50;65.50
22360;DHT22;11347;52.030;4.690;2022-08-01T03:07:55;23.50;65.40
22360;DHT22;11347;52.030;4.690;2022-08-01T03:10:21;23.50;65.40
22360;DHT22;11347;52.030;4.690;2022-08-01T03:12:49;23.50;65.40
22360;DHT22;11347;52.030;4.690;2022-08-01T03:15:16;23.50;65.40
22360;DHT22;11347;52.030;4.690;2022-08-01T03:17:44;23.50;65.40
22360;DHT22;11347;52.030;4.690;2022-08-01T03:20:13;23.50;65.40
22360;DHT22;11347;52.030;4.690;2022-08-01T03:22:40;23.50;65.40
22360;DHT22;11347;52.030;4.690;2022-08-01T03:25:08;23.50;65.30
22360;DHT22;11347;52.030;4.690;2022-08-01T03:27:36;23.50;65.40
22360;DHT22;11347;52.030;4.690;2022-08-01T03:30:04;23.50;65.40
22360;DHT22;11347;52.030;4.690;2022-08-01T03:32:30;23.50;65.40
22360;DHT22;11347;52.030;4.690;2022-08-01T03:34:56;23.40;65.30
22360;DHT22;11347;52.030;4.690;2022-08-01T03:37:27;23.50;65.30
22360;DHT22;11347;52.030;4.690;2022-08-01T03:42:35;23.50;65.20
22360;DHT22;11347;52.030;4.690;2022-08-01T03:45:06;23.40;65.10
22360;DHT22;11347;52.030;4.690;2022-08-01T03:47:35;23.40;65.00
22360;DHT22;11347;52.030;4.690;2022-08-01T03:50:03;23.40;65.00
22360;DHT22;11347;52.030;4.690;2022-08-01T03:52:30;23.40;65.00
22360;DHT22;11347;52.030;4.690;2022-08-01T03:54:59;23.40;64.90
22360;DHT22;11347;52.030;4.690;2022-08-01T03:57:28;23.40;65.00
22360;DHT22;11347;52.030;4.690;2022-08-01T03:59:56;23.40;65.50
22360;DHT22;11347;52.030;4.690;2022-08-01T04:02:22;23.40;65.20
22360;DHT22;11347;52.030;4.690;2022-08-01T04:04:48;23.40;65.20
22360;DHT22;11347;52.030;4.690;2022-08-01T04:07:29;23.40;65.30
22360;DHT22;11347;52.030;4.690;2022-08-01T04:09:55;23.40;65.30
22360;DHT22;11347;52.030;4.690;2022-08-01T04:12:21;23.40;65.40
22360;DHT22;11347;52.030;4.690;2022-08-01T04:14:47;23.40;65.40
22360;DHT22;11347;52.030;4.690;2022-08-01T04:17:13;23.30;65.40
22360;DHT22;11347;52.030;4.690;2022-08-01T04:19:39;23.40;65.40
22360;DHT22;11347;52.030;4.690;2022-08-01T04:22:05;23.40;65.90
22360;DHT22;11347;52.030;4.690;2022-08-01T04:24:32;23.40;65.40
22360;DHT22;11347;52.030;4.690;2022-08-01T04:27:00;23.40;65.40
22360;DHT22;11347;52.030;4.690;2022-08-01T04:29:27;23.30;65.40
22360;DHT22;11347;52.030;4.690;2022-08-01T04:31:54;23.40;65.50
22360;DHT22;11347;52.030;4.690;2022-08-01T04:34:23;23.30;65.50
22360;DHT22;11347;52.030;4.690;2022-08-01T04:36:52;23.30;65.60
22360;DHT22;11347;52.030;4.690;2022-08-01T04:39:19;23.30;65.60
22360;DHT22;11347;52.030;4.690;2022-08-01T04:41:46;23.30;65.80
22360;DHT22;11347;52.030;4.690;2022-08-01T04:44:13;23.30;65.70
22360;DHT22;11347;52.030;4.690;2022-08-01T04:46:39;23.30;65.80
22360;DHT22;11347;52.030;4.690;2022-08-01T04:49:10;23.30;65.80
22360;DHT22;11347;52.030;4.690;2022-08-01T04:51:48;23.30;65.80
22360;DHT22;11347;52.030;4.690;2022-08-01T04:54:14;23.30;65.80
22360;DHT22;11347;52.030;4.690;2022-08-01T04:56:40;23.30;65.80
22360;DHT22;11347;52.030;4.690;2022-08-01T04:59:06;23.30;65.80
22360;DHT22;11347;52.030;4.690;2022-08-01T05:01:50;23.30;65.80
22360;DHT22;11347;52.030;4.690;2022-08-01T05:04:16;23.30;65.80
22360;DHT22;11347;52.030;4.690;2022-08-01T05:06:42;23.30;65.80
22360;DHT22;11347;52.030;4.690;2022-08-01T05:09:07;23.30;65.90
22360;DHT22;11347;52.030;4.690;2022-08-01T05:11:33;23.30;65.90
22360;DHT22;11347;52.030;4.690;2022-08-01T05:13:58;23.30;66.10
22360;DHT22;11347;52.030;4.690;2022-08-01T05:16:24;23.30;66.20
22360;DHT22;11347;52.030;4.690;2022-08-01T05:18:49;23.30;66.40
22360;DHT22;11347;52.030;4.690;2022-08-01T05:21:15;23.30;66.50
22360;DHT22;11347;52.030;4.690;2022-08-01T05:23:40;23.30;66.70
22360;DHT22;11347;52.030;4.690;2022-08-01T05:26:06;23.30;66.70
22360;DHT22;11347;52.030;4.690;2022-08-01T05:28:31;23.30;66.80
22360;DHT22;11347;52.030;4.690;2022-08-01T05:30:57;23.30;66.70
22360;DHT22;11347;52.030;4.690;2022-08-01T05:33:23;23.30;66.70
22360;DHT22;11347;52.030;4.690;2022-08-01T05:35:48;23.30;66.50
22360;DHT22;11347;52.030;4.690;2022-08-01T05:38:14;23.30;66.50
22360;DHT22;11347;52.030;4.690;2022-08-01T05:40:39;23.30;66.40
22360;DHT22;11347;52.030;4.690;2022-08-01T05:43:05;23.30;66.40
22360;DHT22;11347;52.030;4.690;2022-08-01T05:45:30;23.30;66.30
22360;DHT22;11347;52.030;4.690;2022-08-01T05:47:56;23.30;66.40
22360;DHT22;11347;52.030;4.690;2022-08-01T05:50:22;23.30;66.40
22360;DHT22;11347;52.030;4.690;2022-08-01T05:52:47;23.30;66.60
22360;DHT22;11347;52.030;4.690;2022-08-01T05:55:13;23.30;66.50
22360;DHT22;11347;52.030;4.690;2022-08-01T05:57:38;23.30;66.30
22360;DHT22;11347;52.030;4.690;2022-08-01T06:00:04;23.30;66.20
22360;DHT22;11347;52.030;4.690;2022-08-01T06:02:30;23.20;66.20
22360;DHT22;11347;52.030;4.690;2022-08-01T06:04:56;23.20;66.30
22360;DHT22;11347;52.030;4.690;2022-08-01T06:07:21;23.30;66.40
22360;DHT22;11347;52.030;4.690;2022-08-01T06:09:47;23.20;66.30
22360;DHT22;11347;52.030;4.690;2022-08-01T06:12:12;23.30;66.50
22360;DHT22;11347;52.030;4.690;2022-08-01T06:14:38;23.20;66.40
22360;DHT22;11347;52.030;4.690;2022-08-01T06:17:03;23.20;66.40
22360;DHT22;11347;52.030;4.690;2022-08-01T06:19:29;23.20;66.50
22360;DHT22;11347;52.030;4.690;2022-08-01T06:21:54;23.20;66.60
22360;DHT22;11347;52.030;4.690;2022-08-01T06:24:20;23.20;66.70
22360;DHT22;11347;52.030;4.690;2022-08-01T06:26:48;23.20;66.80
22360;DHT22;11347;52.030;4.690;2022-08-01T06:29:14;23.20;67.00
22360;DHT22;11347;52.030;4.690;2022-08-01T06:31:39;23.20;67.00
22360;DHT22;11347;52.030;4.690;2022-08-01T06:34:05;23.20;67.20
22360;DHT22;11347;52.030;4.690;2022-08-01T06:36:30;23.20;67.40
22360;DHT22;11347;52.030;4.690;2022-08-01T06:38:56;23.20;67.50
22360;DHT22;11347;52.030;4.690;2022-08-01T06:41:21;23.20;67.60
22360;DHT22;11347;52.030;4.690;2022-08-01T06:43:47;23.30;67.70
22360;DHT22;11347;52.030;4.690;2022-08-01T06:46:12;23.30;67.70
22360;DHT22;11347;52.030;4.690;2022-08-01T06:48:38;23.30;67.70
22360;DHT22;11347;52.030;4.690;2022-08-01T06:51:04;23.30;67.70
22360;DHT22;11347;52.030;4.690;2022-08-01T06:53:37;23.30;67.50
22360;DHT22;11347;52.030;4.690;2022-08-01T06:56:04;23.20;67.40
22360;DHT22;11347;52.030;4.690;2022-08-01T06:58:30;23.30;67.60
22360;DHT22;11347;52.030;4.690;2022-08-01T07:00:56;23.30;67.40
22360;DHT22;11347;52.030;4.690;2022-08-01T07:03:22;23.30;67.20
22360;DHT22;11347;52.030;4.690;2022-08-01T07:05:47;23.30;67.10
22360;DHT22;11347;52.030;4.690;2022-08-01T07:08:13;23.20;67.10
22360;DHT22;11347;52.030;4.690;2022-08-01T07:10:38;23.30;67.10
22360;DHT22;11347;52.030;4.690;2022-08-01T07:13:04;23.30;66.90
22360;DHT22;11347;52.030;4.690;2022-08-01T07:15:29;23.20;66.70
22360;DHT22;11347;52.030;4.690;2022-08-01T07:17:55;23.20;66.50
22360;DHT22;11347;52.030;4.690;2022-08-01T07:20:22;23.20;66.30
22360;DHT22;11347;52.030;4.690;2022-08-01T07:22:47;23.20;66.20
22360;DHT22;11347;52.030;4.690;2022-08-01T07:25:13;23.10;66.00
22360;DHT22;11347;52.030;4.690;2022-08-01T07:27:39;23.10;65.80
22360;DHT22;11347;52.030;4.690;2022-08-01T07:30:05;23.10;65.90
22360;DHT22;11347;52.030;4.690;2022-08-01T07:32:31;23.10;65.80
22360;DHT22;11347;52.030;4.690;2022-08-01T07:34:56;23.10;65.70
22360;DHT22;11347;52.030;4.690;2022-08-01T07:37:22;23.10;65.70
22360;DHT22;11347;52.030;4.690;2022-08-01T07:39:49;23.10;65.70
22360;DHT22;11347;52.030;4.690;2022-08-01T07:42:14;23.10;65.70
22360;DHT22;11347;52.030;4.690;2022-08-01T07:44:40;23.10;65.70
22360;DHT22;11347;52.030;4.690;2022-08-01T07:47:06;23.10;65.70
22360;DHT22;11347;52.030;4.690;2022-08-01T07:49:32;23.10;65.60
22360;DHT22;11347;52.030;4.690;2022-08-01T07:51:57;23.10;66.00
22360;DHT22;11347;52.030;4.690;2022-08-01T07:54:23;23.10;65.40
22360;DHT22;11347;52.030;4.690;2022-08-01T07:56:53;23.10;65.30
22360;DHT22;11347;52.030;4.690;2022-08-01T07:59:19;23.10;65.30
22360;DHT22;11347;52.030;4.690;2022-08-01T08:01:48;23.10;65.30
22360;DHT22;11347;52.030;4.690;2022-08-01T08:04:15;23.10;65.20
22360;DHT22;11347;52.030;4.690;2022-08-01T08:06:40;23.10;65.20
22360;DHT22;11347;52.030;4.690;2022-08-01T08:09:06;23.10;65.10
22360;DHT22;11347;52.030;4.690;2022-08-01T08:11:32;23.10;65.00
22360;DHT22;11347;52.030;4.690;2022-08-01T08:13:57;23.10;65.00
22360;DHT22;11347;52.030;4.690;2022-08-01T08:16:23;23.10;64.90
22360;DHT22;11347;52.030;4.690;2022-08-01T08:18:48;23.10;64.90
22360;DHT22;11347;52.030;4.690;2022-08-01T08:21:14;23.10;64.80
22360;DHT22;11347;52.030;4.690;2022-08-01T08:23:40;23.10;64.70
22360;DHT22;11347;52.030;4.690;2022-08-01T08:26:24;23.10;64.70
22360;DHT22;11347;52.030;4.690;2022-08-01T08:28:50;23.10;64.60
22360;DHT22;11347;52.030;4.690;2022-08-01T08:31:16;23.10;64.50
22360;DHT22;11347;52.030;4.690;2022-08-01T08:33:41;23.20;64.50
22360;DHT22;11347;52.030;4.690;2022-08-01T08:36:07;23.20;64.30
22360;DHT22;11347;52.030;4.690;2022-08-01T08:38:33;23.20;64.20
22360;DHT22;11347;52.030;4.690;2022-08-01T08:40:59;23.20;63.70
22360;DHT22;11347;52.030;4.690;2022-08-01T08:43:25;23.20;63.40
22360;DHT22;11347;52.030;4.690;2022-08-01T08:45:52;23.20;63.30
22360;DHT22;11347;52.030;4.690;2022-08-01T08:48:18;23.20;63.00
22360;DHT22;11347;52.030;4.690;2022-08-01T08:50:45;23.20;63.20
22360;DHT22;11347;52.030;4.690;2022-08-01T08:53:13;23.20;63.10
22360;DHT22;11347;52.030;4.690;2022-08-01T08:55:41;23.20;63.00
22360;DHT22;11347;52.030;4.690;2022-08-01T08:58:12;23.20;62.70
22360;DHT22;11347;52.030;4.690;2022-08-01T09:00:41;23.10;62.40
22360;DHT22;11347;52.030;4.690;2022-08-01T09:03:07;23.20;62.40
22360;DHT22;11347;52.030;4.690;2022-08-01T09:05:33;23.10;62.40
22360;DHT22;11347;52.030;4.690;2022-08-01T09:07:59;23.20;62.50
22360;DHT22;11347;52.030;4.690;2022-08-01T09:10:25;23.20;62.70
22360;DHT22;11347;52.030;4.690;2022-08-01T09:13:06;23.20;62.50
22360;DHT22;11347;52.030;4.690;2022-08-01T09:15:50;23.20;62.30
22360;DHT22;11347;52.030;4.690;2022-08-01T09:18:33;23.20;61.90
22360;DHT22;11347;52.030;4.690;2022-08-01T09:23:51;23.20;61.90
22360;DHT22;11347;52.030;4.690;2022-08-01T09:26:30;23.20;61.90
22360;DHT22;11347;52.030;4.690;2022-08-01T09:28:57;23.30;62.00
22360;DHT22;11347;52.030;4.690;2022-08-01T09:31:26;23.30;62.00
22360;DHT22;11347;52.030;4.690;2022-08-01T09:34:01;23.20;61.90
22360;DHT22;11347;52.030;4.690;2022-08-01T09:36:49;23.20;61.90
22360;DHT22;11347;52.030;4.690;2022-08-01T09:39:22;23.20;61.90
22360;DHT22;11347;52.030;4.690;2022-08-01T09:41:48;23.20;61.90
22360;DHT22;11347;52.030;4.690;2022-08-01T09:44:14;23.20;61.90
22360;DHT22;11347;52.030;4.690;2022-08-01T09:46:51;23.30;61.60
22360;DHT22;11347;52.030;4.690;2022-08-01T09:49:31;23.30;61.90
22360;DHT22;11347;52.030;4.690;2022-08-01T09:51:58;23.30;61.80
22360;DHT22;11347;52.030;4.690;2022-08-01T09:54:33;23.30;61.80
22360;DHT22;11347;52.030;4.690;2022-08-01T09:57:16;23.30;61.10
22360;DHT22;11347;52.030;4.690;2022-08-01T09:59:44;23.40;61.10
22360;DHT22;11347;52.030;4.690;2022-08-01T10:02:11;23.40;60.50
22360;DHT22;11347;52.030;4.690;2022-08-01T10:04:50;23.30;60.60
22360;DHT22;11347;52.030;4.690;2022-08-01T10:07:16;23.40;60.40
22360;DHT22;11347;52.030;4.690;2022-08-01T10:09:43;23.40;60.40
22360;DHT22;11347;52.030;4.690;2022-08-01T10:12:10;23.30;60.30
22360;DHT22;11347;52.030;4.690;2022-08-01T10:14:38;23.30;60.00
22360;DHT22;11347;52.030;4.690;2022-08-01T10:17:04;23.40;60.00
22360;DHT22;11347;52.030;4.690;2022-08-01T10:19:32;23.40;60.00
22360;DHT22;11347;52.030;4.690;2022-08-01T10:21:58;23.40;59.50
22360;DHT22;11347;52.030;4.690;2022-08-01T10:24:25;23.40;59.20
22360;DHT22;11347;52.030;4.690;2022-08-01T10:26:55;23.40;58.90
22360;DHT22;11347;52.030;4.690;2022-08-01T10:29:25;23.40;59.10
22360;DHT22;11347;52.030;4.690;2022-08-01T10:31:52;23.40;59.20
22360;DHT22;11347;52.030;4.690;2022-08-01T10:34:18;23.50;59.50
22360;DHT22;11347;52.030;4.690;2022-08-01T10:36:46;23.50;59.50
22360;DHT22;11347;52.030;4.690;2022-08-01T10:39:12;23.50;59.40
22360;DHT22;11347;52.030;4.690;2022-08-01T10:41:41;23.50;59.30
22360;DHT22;11347;52.030;4.690;2022-08-01T10:44:08;23.60;59.20
22360;DHT22;11347;52.030;4.690;2022-08-01T10:46:45;23.60;59.20
22360;DHT22;11347;52.030;4.690;2022-08-01T10:49:14;23.60;59.20
22360;DHT22;11347;52.030;4.690;2022-08-01T10:51:41;23.60;58.70
22360;DHT22;11347;52.030;4.690;2022-08-01T10:54:08;23.60;58.70
22360;DHT22;11347;52.030;4.690;2022-08-01T10:56:49;23.60;58.60
22360;DHT22;11347;52.030;4.690;2022-08-01T10:59:27;23.70;58.20
22360;DHT22;11347;52.030;4.690;2022-08-01T11:02:01;23.70;58.40
22360;DHT22;11347;52.030;4.690;2022-08-01T11:04:36;23.70;58.50
22360;DHT22;11347;52.030;4.690;2022-08-01T11:07:10;23.70;58.10
22360;DHT22;11347;52.030;4.690;2022-08-01T11:09:42;23.70;57.60
22360;DHT22;11347;52.030;4.690;2022-08-01T11:12:09;23.80;57.90
22360;DHT22;11347;52.030;4.690;2022-08-01T11:17:38;23.80;57.80
22360;DHT22;11347;52.030;4.690;2022-08-01T11:20:11;23.80;57.60
22360;DHT22;11347;52.030;4.690;2022-08-01T11:30:49;23.80;57.20
22360;DHT22;11347;52.030;4.690;2022-08-01T11:33:17;23.80;57.00
22360;DHT22;11347;52.030;4.690;2022-08-01T11:38:47;23.80;56.70
22360;DHT22;11347;52.030;4.690;2022-08-01T11:44:04;23.80;56.70
22360;DHT22;11347;52.030;4.690;2022-08-01T11:52:13;23.80;55.40
22360;DHT22;11347;52.030;4.690;2022-08-01T11:54:43;23.90;55.40
22360;DHT22;11347;52.030;4.690;2022-08-01T11:57:11;23.80;55.30
22360;DHT22;11347;52.030;4.690;2022-08-01T11:59:58;23.90;55.60
22360;DHT22;11347;52.030;4.690;2022-08-01T12:02:26;23.90;55.30
22360;DHT22;11347;52.030;4.690;2022-08-01T12:05:01;23.90;55.40
22360;DHT22;11347;52.030;4.690;2022-08-01T12:07:30;23.90;54.90
22360;DHT22;11347;52.030;4.690;2022-08-01T12:12:26;24.00;54.70
22360;DHT22;11347;52.030;4.690;2022-08-01T12:14:57;23.90;54.60
22360;DHT22;11347;52.030;4.690;2022-08-01T12:17:35;23.90;54.30
22360;DHT22;11347;52.030;4.690;2022-08-01T12:20:05;24.00;54.20
22360;DHT22;11347;52.030;4.690;2022-08-01T12:22:31;23.90;54.00
22360;DHT22;11347;52.030;4.690;2022-08-01T12:25:08;23.90;54.00
22360;DHT22;11347;52.030;4.690;2022-08-01T12:27:36;24.00;53.60
22360;DHT22;11347;52.030;4.690;2022-08-01T12:30:05;24.00;53.60
22360;DHT22;11347;52.030;4.690;2022-08-01T12:32:33;24.00;52.60
22360;DHT22;11347;52.030;4.690;2022-08-01T12:35:30;24.00;52.60
22360;DHT22;11347;52.030;4.690;2022-08-01T12:38:01;24.00;52.60
22360;DHT22;11347;52.030;4.690;2022-08-01T12:40:32;24.00;52.60
22360;DHT22;11347;52.030;4.690;2022-08-01T12:43:01;24.10;52.70
22360;DHT22;11347;52.030;4.690;2022-08-01T12:45:31;24.00;52.60
22360;DHT22;11347;52.030;4.690;2022-08-01T12:47:58;24.00;52.60
22360;DHT22;11347;52.030;4.690;2022-08-01T12:50:29;24.00;52.60
22360;DHT22;11347;52.030;4.690;2022-08-01T12:52:56;24.10;52.70
22360;DHT22;11347;52.030;4.690;2022-08-01T12:55:26;24.10;52.70
22360;DHT22;11347;52.030;4.690;2022-08-01T12:58:07;24.00;51.60
22360;DHT22;11347;52.030;4.690;2022-08-01T13:00:34;24.10;51.70
22360;DHT22;11347;52.030;4.690;2022-08-01T13:03:05;24.10;52.00
22360;DHT22;11347;52.030;4.690;2022-08-01T13:05:48;24.10;51.70
22360;DHT22;11347;52.030;4.690;2022-08-01T13:08:20;24.10;51.30
22360;DHT22;11347;52.030;4.690;2022-08-01T13:10:47;24.10;50.70
22360;DHT22;11347;52.030;4.690;2022-08-01T13:13:15;24.10;51.00
22360;DHT22;11347;52.030;4.690;2022-08-01T13:15:42;24.10;49.50
22360;DHT22;11347;52.030;4.690;2022-08-01T13:18:28;24.10;48.80
22360;DHT22;11347;52.030;4.690;2022-08-01T13:21:11;24.10;49.40
22360;DHT22;11347;52.030;4.690;2022-08-01T13:23:38;24.00;49.30
22360;DHT22;11347;52.030;4.690;2022-08-01T13:26:04;24.10;48.60
22360;DHT22;11347;52.030;4.690;2022-08-01T13:28:30;24.10;48.60
22360;DHT22;11347;52.030;4.690;2022-08-01T13:31:05;24.10;48.90
22360;DHT22;11347;52.030;4.690;2022-08-01T13:33:43;24.10;48.50
22360;DHT22;11347;52.030;4.690;2022-08-01T13:36:09;24.10;48.20
22360;DHT22;11347;52.030;4.690;2022-08-01T13:38:35;24.10;48.30
22360;DHT22;11347;52.030;4.690;2022-08-01T13:41:19;24.10;48.10
22360;DHT22;11347;52.030;4.690;2022-08-01T13:43:44;24.10;48.30
22360;DHT22;11347;52.030;4.690;2022-08-01T13:46:10;24.10;48.10
22360;DHT22;11347;52.030;4.690;2022-08-01T13:48:35;24.10;48.40
22360;DHT22;11347;52.030;4.690;2022-08-01T13:51:01;24.20;48.60
22360;DHT22;11347;52.030;4.690;2022-08-01T13:53:27;24.20;48.80
22360;DHT22;11347;52.030;4.690;2022-08-01T13:55:53;24.20;48.00
22360;DHT22;11347;52.030;4.690;2022-08-01T13:58:19;24.20;47.40
22360;DHT22;11347;52.030;4.690;2022-08-01T14:00:44;24.20;48.10
22360;DHT22;11347;52.030;4.690;2022-08-01T14:03:11;24.20;48.00
22360;DHT22;11347;52.030;4.690;2022-08-01T14:05:37;24.20;47.70
22360;DHT22;11347;52.030;4.690;2022-08-01T14:08:03;24.20;47.20
22360;DHT22;11347;52.030;4.690;2022-08-01T14:10:28;24.20;47.20
22360;DHT22;11347;52.030;4.690;2022-08-01T14:12:57;24.20;47.20
22360;DHT22;11347;52.030;4.690;2022-08-01T14:15:24;24.20;46.90
22360;DHT22;11347;52.030;4.690;2022-08-01T14:17:50;24.20;46.80
22360;DHT22;11347;52.030;4.690;2022-08-01T14:20:15;24.20;46.60
22360;DHT22;11347;52.030;4.690;2022-08-01T14:22:45;24.30;47.30
22360;DHT22;11347;52.030;4.690;2022-08-01T14:25:10;24.30;47.30
22360;DHT22;11347;52.030;4.690;2022-08-01T14:27:36;24.30;47.30
22360;DHT22;11347;52.030;4.690;2022-08-01T14:30:03;24.30;46.70
22360;DHT22;11347;52.030;4.690;2022-08-01T14:32:29;24.30;46.30
22360;DHT22;11347;52.030;4.690;2022-08-01T14:34:55;24.30;46.20
22360;DHT22;11347;52.030;4.690;2022-08-01T14:37:21;24.30;45.90
22360;DHT22;11347;52.030;4.690;2022-08-01T14:39:47;24.40;46.10
22360;DHT22;11347;52.030;4.690;2022-08-01T14:42:13;24.30;45.10
22360;DHT22;11347;52.030;4.690;2022-08-01T14:44:38;24.30;44.40
22360;DHT22;11347;52.030;4.690;2022-08-01T14:47:04;24.30;45.00
22360;DHT22;11347;52.030;4.690;2022-08-01T14:49:30;24.30;44.90
22360;DHT22;11347;52.030;4.690;2022-08-01T14:51:55;24.30;45.60
22360;DHT22;11347;52.030;4.690;2022-08-01T14:54:21;24.30;45.70
22360;DHT22;11347;52.030;4.690;2022-08-01T14:56:46;24.30;45.70
22360;DHT22;11347;52.030;4.690;2022-08-01T14:59:12;24.30;45.90
22360;DHT22;11347;52.030;4.690;2022-08-01T15:01:38;24.40;46.10
22360;DHT22;11347;52.030;4.690;2022-08-01T15:04:03;24.40;46.30
22360;DHT22;11347;52.030;4.690;2022-08-01T15:06:29;24.30;46.00
22360;DHT22;11347;52.030;4.690;2022-08-01T15:08:54;24.30;45.60
22360;DHT22;11347;52.030;4.690;2022-08-01T15:11:20;24.30;45.70
22360;DHT22;11347;52.030;4.690;2022-08-01T15:13:46;24.30;46.00
22360;DHT22;11347;52.030;4.690;2022-08-01T15:16:31;24.30;46.20
22360;DHT22;11347;52.030;4.690;2022-08-01T15:18:57;24.30;45.60
22360;DHT22;11347;52.030;4.690;2022-08-01T15:21:22;24.30;44.90
22360;DHT22;11347;52.030;4.690;2022-08-01T15:23:48;24.30;44.50
22360;DHT22;11347;52.030;4.690;2022-08-01T15:26:13;24.40;44.30
22360;DHT22;11347;52.030;4.690;2022-08-01T15:28:39;24.30;44.20
22360;DHT22;11347;52.030;4.690;2022-08-01T15:31:05;24.30;44.40
22360;DHT22;11347;52.030;4.690;2022-08-01T15:33:30;24.30;44.20
22360;DHT22;11347;52.030;4.690;2022-08-01T15:35:56;24.30;44.30
22360;DHT22;11347;52.030;4.690;2022-08-01T15:38:21;24.30;44.10
22360;DHT22;11347;52.030;4.690;2022-08-01T15:40:47;24.30;43.20
22360;DHT22;11347;52.030;4.690;2022-08-01T15:43:12;24.30;43.30
22360;DHT22;11347;52.030;4.690;2022-08-01T15:45:38;24.30;43.30
22360;DHT22;11347;52.030;4.690;2022-08-01T15:48:04;24.30;43.80
22360;DHT22;11347;52.030;4.690;2022-08-01T15:50:29;24.30;43.30
22360;DHT22;11347;52.030;4.690;2022-08-01T15:52:55;24.20;43.40
22360;DHT22;11347;52.030;4.690;2022-08-01T15:55:21;24.20;43.70
22360;DHT22;11347;52.030;4.690;2022-08-01T15:57:46;24.30;43.20
22360;DHT22;11347;52.030;4.690;2022-08-01T16:00:12;24.30;43.50
22360;DHT22;11347;52.030;4.690;2022-08-01T16:02:39;24.20;43.00
22360;DHT22;11347;52.030;4.690;2022-08-01T16:05:05;24.20;42.90
22360;DHT22;11347;52.030;4.690;2022-08-01T16:07:31;24.20;42.80
22360;DHT22;11347;52.030;4.690;2022-08-01T16:09:56;24.20;42.70
22360;DHT22;11347;52.030;4.690;2022-08-01T16:12:22;24.20;42.10
22360;DHT22;11347;52.030;4.690;2022-08-01T16:14:47;24.20;42.20